Latest Weather Observations for Georgetown Airport

IDQ60801

Issued at 10:32 am EST Friday 19 December 2014 (issued every 30 minutes, with the page automatically refreshed every 10 minutes)

About weather observations | Map of weather stations | Latest weather observations for QLD | Other Formats
Station Details ID: 030124 Name: GEORGETOWN AIRPORT Lat: -18.30 Lon: 143.53 Height: 301.77 m
Data from the previous 72 hours. | See also: Recent months at Georgetown Airport
Date/Time
EST
Temp
°C
App
Temp
°C
Dew
Point
Rel
Hum
%
Delta-T
°C
Wind Press
QNH
hPa
Press
MSL
hPa
Rain
since 9 am
mm
Dir
 
Spd
km/h
Gust
km/h
Spd
kts
Gust
kts
19/10:30am 31.4 33.7 20.7 53 7.2 NE 9 13 5 7 1012.6 - 0.0
19/10:00am 30.9 33.3 20.8 55 6.8 NE 9 24 5 13 1012.8 - 0.0
19/09:30am 30.2 31.3 20.4 55 6.6 NE 15 24 8 13 1012.8 - 0.0
19/09:00am 29.7 31.1 21.1 60 5.8 ENE 15 22 8 12 1012.7 1010.5 47.4
19/08:30am 29.1 30.4 20.8 61 5.6 ENE 15 19 8 10 1012.9 - 47.4
19/08:00am 28.5 30.1 20.8 63 5.2 NE 13 20 7 11 1012.5 - 47.4
19/07:30am 27.1 29.7 20.4 66 4.4 NE 7 11 4 6 1012.5 - 47.2
19/07:00am 26.2 28.8 20.5 71 3.8 NE 7 9 4 5 1012.2 - 47.2
19/06:30am 25.3 28.4 21.4 79 2.6 NE 7 11 4 6 1011.6 - 47.2
19/06:00am 24.4 28.5 21.5 84 1.9 ENE 2 6 1 3 1011.2 - 47.2
19/05:30am 24.6 27.8 21.7 84 1.9 ENE 7 7 4 4 1010.8 - 47.2
19/05:00am 24.6 28.4 21.7 84 1.9 ENE 4 7 2 4 1010.4 - 47.2
19/04:30am 24.8 27.5 21.3 81 2.3 ENE 9 13 5 7 1010.1 - 47.2
19/04:00am 24.6 26.4 21.9 85 1.8 NE 15 24 8 13 1009.8 - 47.2
19/03:30am 24.7 27.5 21.6 83 2.1 ENE 9 13 5 7 1010.1 - 47.2
19/03:00am 24.8 27.6 21.5 82 2.2 ENE 9 13 5 7 1010.4 1008.2 47.2
19/02:30am 24.7 27.5 21.6 83 2.1 SSE 9 15 5 8 1010.2 - 47.2
19/02:00am 24.8 28.3 22.1 85 1.8 S 7 11 4 6 1010.6 - 47.2
19/01:30am 25.0 29.9 22.3 85 1.8 CALM 0 0 0 0 1011.4 - 47.2
19/01:00am 25.3 28.8 22.2 83 2.1 W 7 11 4 6 1011.4 - 47.2
19/12:30am 25.1 28.8 22.2 84 2.0 ESE 6 11 3 6 1011.1 - 47.2
19/12:00am 24.9 29.4 23.0 89 1.3 S 4 7 2 4 1011.2 1009.0 47.2
 
Date/Time
EST
Temp
°C
App
Temp
°C
Dew
Point
Rel
Hum
%
Delta-T
°C
Wind Press
QNH
hPa
Press
MSL
hPa
Rain
since 9 am
mm
Dir
 
Spd
km/h
Gust
km/h
Spd
kts
Gust
kts
18/11:30pm 24.6 26.9 22.8 90 1.2 ESE 15 24 8 13 1010.8 - 47.2
18/11:00pm 24.4 26.1 23.0 92 1.0 E 19 24 10 13 1012.6 - 47.2
18/10:30pm 24.5 26.9 22.9 91 1.1 S 15 20 8 11 1013.7 - 46.8
18/10:00pm 25.1 28.0 23.2 89 1.3 S 13 20 7 11 1014.7 - 45.8
18/09:30pm 24.7 27.8 23.5 93 0.8 SSW 13 19 7 10 1014.7 - 45.6
18/09:00pm 24.1 28.0 23.6 97 0.3 S 9 15 5 8 1014.8 1012.6 45.4
18/08:30pm 23.7 27.5 23.5 99 0.1 SE 9 15 5 8 1014.0 - 43.8
18/08:00pm 23.6 24.4 23.1 97 0.3 SSE 24 37 13 20 1013.1 - 35.2
18/07:34pm 23.0 22.0 22.7 98 0.2 SE 32 56 17 30 1012.7 - 17.4
18/07:30pm 23.1 22.9 22.8 98 0.2 SE 28 41 15 22 1012.8 - 14.4
18/07:00pm 24.7 24.3 23.1 91 1.1 SSE 30 50 16 27 1011.8 - 0.2
18/06:44pm 26.0 25.2 21.7 77 2.9 SSE 28 46 15 25 1011.4 - 0.0
18/06:30pm 30.1 29.5 19.8 54 6.8 SSE 22 35 12 19 1010.0 - 0.0
18/06:28pm 31.8 31.0 20.1 50 7.8 SSE 24 35 13 19 1009.7 - 0.0
18/06:00pm 33.4 33.1 19.5 44 9.3 WNW 20 28 11 15 1007.7 1005.4 0.0
18/05:30pm 34.4 32.6 20.4 44 9.5 WNW 30 39 16 21 1007.6 - 0.0
18/05:26pm 34.8 33.5 20.7 43 9.6 WNW 28 39 15 21 1007.3 - 0.0
18/05:00pm 37.0 38.0 19.4 35 11.8 NNW 13 17 7 9 1006.7 - 0.0
18/04:30pm 37.3 38.8 19.7 35 11.9 NW 11 19 6 10 1006.5 - 0.0
18/04:00pm 37.6 37.8 18.6 33 12.7 NW 15 22 8 12 1006.7 - 0.0
18/03:30pm 37.0 37.6 19.4 35 11.8 N 15 22 8 12 1006.9 - 0.0
18/03:00pm 37.6 40.0 20.8 37 11.5 WSW 9 17 5 9 1007.8 1005.5 0.0
18/02:30pm 37.0 38.4 20.3 37 11.4 SW 13 20 7 11 1008.7 - 0.0
18/02:00pm 36.0 37.6 20.7 41 10.4 WSW 13 19 7 10 1009.4 - 0.0
18/01:30pm 35.1 36.8 20.2 41 10.1 WNW 11 20 6 11 1009.5 - 0.0
18/01:00pm 35.0 37.3 22.0 46 9.0 W 13 22 7 12 1009.8 - 0.0
18/12:30pm 34.5 36.1 21.5 46 8.9 WNW 15 24 8 13 1010.2 - 0.0
18/12:00pm 33.9 36.7 22.3 50 8.0 WNW 11 20 6 11 1010.7 1008.5 0.0
18/11:30am 33.1 35.7 21.9 51 7.7 N 11 17 6 9 1011.4 - 0.0
18/11:00am 31.9 34.4 21.7 54 7.0 NNE 11 17 6 9 1011.8 - 0.0
18/10:30am 31.5 33.9 22.2 57 6.4 NW 13 20 7 11 1012.3 - 0.0
18/10:00am 30.7 33.6 21.8 59 6.1 NNW 9 20 5 11 1012.5 - 0.0
18/09:30am 29.2 31.9 21.4 63 5.3 N 9 13 5 7 1012.4 - 0.0
18/09:00am 28.8 30.9 21.0 62 5.2 N 11 19 6 10 1012.2 1010.0 5.2
18/08:30am 28.4 31.0 21.9 68 4.4 N 11 15 6 8 1012.2 - 5.2
18/08:00am 27.5 30.8 21.8 71 3.9 N 7 11 4 6 1011.9 - 5.2
18/07:30am 27.0 30.5 22.2 75 3.3 NNE 7 9 4 5 1011.6 - 5.2
18/07:00am 26.7 30.0 22.5 78 2.9 N 9 11 5 6 1011.4 - 5.2
18/06:30am 26.3 29.8 22.8 81 2.4 N 9 13 5 7 1011.1 - 5.2
18/06:00am 26.2 29.6 22.7 81 2.4 NNE 9 11 5 6 1011.0 1008.7 5.2
18/05:30am 26.3 30.0 22.2 78 2.8 NNE 6 9 3 5 1010.8 - 5.2
18/05:00am 26.4 29.6 21.6 75 3.2 N 7 11 4 6 1010.4 - 5.2
18/04:30am 26.8 29.8 22.0 75 3.3 N 9 15 5 8 1009.9 - 5.2
18/04:00am 26.7 31.2 24.0 85 1.9 NNE 7 9 4 5 1009.6 - 5.2
18/03:30am 26.5 31.8 24.3 88 1.5 ENE 4 7 2 4 1009.2 - 5.2
18/03:00am 26.3 31.1 24.2 88 1.5 E 6 7 3 4 1009.1 1006.9 5.2
18/02:30am 26.2 30.5 24.2 89 1.4 NNE 9 13 5 7 1008.6 - 5.2
18/02:00am 26.0 31.4 23.9 88 1.5 SE 2 7 1 4 1008.7 - 5.2
18/01:30am 26.2 30.0 23.5 85 1.9 WNW 9 11 5 6 1008.9 - 5.2
18/01:00am 25.5 28.7 23.0 86 1.7 NNW 11 13 6 7 1009.3 - 5.2
18/12:30am 26.6 28.3 21.6 74 3.4 ENE 15 24 8 13 1010.7 - 2.0
18/12:00am 30.8 33.1 20.7 55 6.8 SSW 9 15 5 8 1010.7 1008.5 0.0
 
Date/Time
EST
Temp
°C
App
Temp
°C
Dew
Point
Rel
Hum
%
Delta-T
°C
Wind Press
QNH
hPa
Press
MSL
hPa
Rain
since 9 am
mm
Dir
 
Spd
km/h
Gust
km/h
Spd
kts
Gust
kts
17/11:30pm 30.8 33.6 20.4 54 7.0 E 6 9 3 5 1009.9 - 0.0
17/11:00pm 31.1 34.9 20.1 52 7.3 CALM 0 0 0 0 1009.7 - 0.0
17/10:30pm 31.3 33.3 19.9 50 7.6 WNW 9 15 5 8 1009.8 - 0.0
17/10:00pm 31.3 33.3 19.9 50 7.6 N 9 13 5 7 1009.5 - 0.0
17/09:30pm 31.4 33.3 19.7 49 7.8 SSE 9 15 5 8 1008.7 - 0.0
17/09:00pm 31.2 32.4 19.9 51 7.5 S 13 20 7 11 1008.7 1006.5 0.0
17/08:30pm 31.7 32.2 19.3 47 8.2 S 15 24 8 13 1008.2 - 0.0
17/08:00pm 33.2 34.5 18.5 41 9.7 S 9 17 5 9 1007.1 - 0.0
17/07:30pm 36.0 36.8 17.2 33 12.2 W 9 11 5 6 1006.5 - 0.0
17/07:00pm 36.4 37.1 17.0 31 12.6 WNW 9 11 5 6 1006.4 - 0.0
17/06:30pm 36.8 37.1 16.9 31 12.9 W 11 15 6 8 1006.0 - 0.0
17/06:00pm 37.4 38.4 16.9 30 13.4 N 7 9 4 5 1005.5 1003.3 0.0
17/05:30pm 37.3 38.3 16.3 29 13.6 ESE 6 11 3 6 1005.4 - 0.0
17/05:00pm 37.5 38.8 17.5 30 13.1 N 7 13 4 7 1005.3 - 0.0
17/04:30pm 36.8 36.5 17.4 32 12.7 NE 15 20 8 11 1005.7 - 0.0
17/04:00pm 37.1 39.0 17.6 31 12.8 N 4 11 2 6 1005.8 - 0.0
17/03:30pm 37.7 38.9 18.2 32 12.9 N 9 13 5 7 1006.2 - 0.0
17/03:00pm 36.7 37.6 18.3 34 12.2 NNW 11 19 6 10 1006.7 1004.5 0.0
17/02:30pm 37.5 38.7 19.0 34 12.4 E 11 17 6 9 1007.2 - 0.0
17/02:00pm 37.3 39.2 19.7 35 11.9 ENE 9 15 5 8 1007.7 - 0.0
17/01:30pm 36.3 37.0 20.5 39 10.8 W 17 24 9 13 1008.3 - 0.0
17/01:00pm 34.8 36.4 20.0 42 10.0 NW 11 20 6 11 1008.7 - 0.0
17/12:30pm 35.1 37.4 20.6 42 9.8 NNE 9 19 5 10 1009.3 - 0.0
17/12:00pm 35.1 38.0 21.7 45 9.2 SW 9 13 5 7 1009.8 1007.6 0.0
17/11:30am 32.9 35.4 21.7 51 7.7 NNW 11 24 6 13 1010.3 - 0.0
17/11:00am 34.1 37.6 22.2 50 8.2 NE 7 17 4 9 1010.7 - 0.0
17/10:30am 32.1 34.7 21.9 54 7.0 N 11 20 6 11 1011.2 - 0.0
17/10:00am 32.5 34.5 22.3 55 7.0 NW 15 24 8 13 1011.3 - 0.0
17/09:30am 31.0 33.8 22.3 60 6.0 NNW 11 19 6 10 1011.5 - 0.0
17/09:00am 29.7 32.3 21.9 63 5.3 N 11 20 6 11 1011.5 1009.3 0.0
17/08:30am 29.8 30.5 22.3 64 5.1 N 22 30 12 16 1011.0 - 0.0
17/08:00am 29.3 31.0 22.3 66 4.8 N 17 26 9 14 1011.0 - 0.0
17/07:30am 28.7 29.8 22.0 67 4.6 N 19 26 10 14 1010.6 - 0.0
17/07:00am 28.5 30.2 22.3 69 4.2 N 17 24 9 13 1010.4 - 0.0
17/06:30am 28.5 30.8 22.7 71 4.0 N 15 19 8 10 1010.0 - 0.0
17/06:00am 28.4 29.8 22.6 71 4.0 N 19 24 10 13 1009.5 1007.3 0.0
17/05:30am 28.6 30.5 22.8 71 4.0 N 17 24 9 13 1009.1 - 0.0
17/05:00am 28.8 30.4 22.8 70 4.1 N 19 28 10 15 1008.9 - 0.0
17/04:30am 28.7 31.0 22.7 70 4.1 N 15 24 8 13 1008.4 - 0.0
17/04:00am 29.0 30.4 22.5 68 4.5 N 19 26 10 14 1008.0 - 0.0
17/03:30am 29.4 30.7 22.4 66 4.8 N 19 30 10 16 1007.7 - 0.0
17/03:00am 30.1 31.3 21.5 60 5.8 N 17 26 9 14 1007.4 - 0.0
17/02:30am 31.1 31.2 19.1 48 7.9 N 17 28 9 15 1007.3 - 0.0
17/02:00am 31.5 32.5 19.5 49 8.0 N 13 19 7 10 1007.4 - 0.0
17/01:30am 31.8 33.5 19.4 47 8.2 N 9 13 5 7 1007.7 - 0.0
17/01:00am 31.9 33.2 19.2 47 8.4 N 11 17 6 9 1007.9 - 0.0
17/12:30am 31.2 31.9 18.9 48 8.1 NE 13 17 7 9 1008.0 - 0.0
17/12:00am 30.7 33.7 18.4 47 8.0 CALM 0 6 0 3 1007.7 1005.4 0.0
 
Date/Time
EST
Temp
°C
App
Temp
°C
Dew
Point
Rel
Hum
%
Delta-T
°C
Wind Press
QNH
hPa
Press
MSL
hPa
Rain
since 9 am
mm
Dir
 
Spd
km/h
Gust
km/h
Spd
kts
Gust
kts
16/11:30pm 32.0 33.5 17.5 42 9.4 NNW 6 7 3 4 1007.9 - 0.0
16/11:00pm 32.6 34.3 18.0 41 9.5 NW 6 9 3 5 1008.0 - 0.0
16/10:30pm 32.8 34.0 17.4 39 10.0 NW 7 9 4 5 1008.1 - 0.0
16/10:00pm 33.3 33.8 16.6 36 10.7 WNW 9 11 5 6 1008.0 - 0.0
16/09:30pm 33.5 33.6 16.4 36 10.9 W 11 13 6 7 1007.8 - 0.0
16/09:00pm 31.6 33.2 18.2 44 8.8 NW 7 9 4 5 1007.3 1005.1 0.0
16/08:30pm 32.7 33.6 16.1 37 10.5 W 6 6 3 3 1007.0 - 0.0
16/08:00pm 33.5 34.5 16.4 36 10.9 W 6 7 3 4 1006.9 - 0.0
16/07:30pm 34.9 35.5 15.7 31 12.2 W 7 9 4 5 1006.7 - 0.0
16/07:00pm 36.5 36.8 15.0 27 13.6 WNW 7 11 4 6 1006.6 - 0.0
16/06:30pm 37.3 38.8 14.6 26 14.3 CALM 0 6 0 3 1006.4 - 0.0
16/06:00pm 37.9 37.9 15.1 26 14.5 WSW 9 13 5 7 1006.2 1004.0 0.0
16/05:30pm 38.4 38.1 15.5 26 14.7 W 11 19 6 10 1006.0 - 0.0
16/05:00pm 37.8 37.9 15.6 27 14.2 NNE 9 13 5 7 1006.0 - 0.0
16/04:30pm 37.1 37.2 15.5 27 13.8 WNW 9 17 5 9 1006.1 - 0.0
16/04:00pm 38.1 38.7 15.8 26 14.3 SW 7 15 4 8 1006.4 - 0.0
16/03:30pm 37.6 38.3 16.0 28 13.9 S 7 11 4 6 1006.7 - 0.0
16/03:00pm 38.0 37.4 15.7 26 14.3 SSW 13 19 7 10 1006.8 1004.6 0.0
16/02:30pm 38.0 38.8 17.4 29 13.5 SW 9 19 5 10 1007.3 - 0.0
16/02:00pm 37.8 38.2 17.2 29 13.5 SSW 11 22 6 12 1008.0 - 0.0
16/01:30pm 36.2 36.3 17.4 33 12.3 ENE 13 19 7 10 1008.6 - 0.0
16/01:00pm 34.5 35.3 18.1 37 10.8 N 11 22 6 12 1009.3 - 0.0
16/12:30pm 35.2 36.8 18.3 36 11.1 SSW 7 11 4 6 1009.7 - 0.0
16/12:00pm 34.6 35.9 19.4 40 10.2 ESE 11 19 6 10 1010.3 1008.1 0.0
16/11:30am 34.0 36.0 20.0 43 9.4 W 9 17 5 9 1011.0 - 0.0
16/11:00am 32.7 34.7 19.9 46 8.6 NE 9 17 5 9 1011.4 - 0.0

Other Formats:

Comma delimited format used in spreadsheet applications
http://www.bom.gov.au/fwo/IDQ60801/IDQ60801.94274.axf

JavaScript Object Notation format (JSON) in row-major order
http://www.bom.gov.au/fwo/IDQ60801/IDQ60801.94274.json